Time;durP1;ratioP1;P1;durP2;ratioP2;P2;SDS_P1;SDS_P2;PMS_P1;PMS_P2;Temp;Humidity;BMP_temperature;BMP_pressure;BME280_temperature;BME280_humidity;BME280_pressure;Samples;Min_cycle;Max_cycle;Signal;HPM_P1;HPM_P2
2020/12/18 00:01:08;;;;;;;4.10;3.20;;;;;;;;;;5052227;28;20497;-51
2020/12/18 00:03:35;;;;;;;4.47;3.20;;;;;;;;;;5052249;28;20896;-52
2020/12/18 00:06:00;;;;;;;3.87;3.20;;;;;;;;;;5052193;28;20792;-52
2020/12/18 00:08:26;;;;;;;6.10;3.40;;;;;;;;;;5052341;28;20428;-51
2020/12/18 00:10:52;;;;;;;9.90;4.10;;;;;;;;;;5052206;28;20824;-50
2020/12/18 00:13:18;;;;;;;5.87;3.43;;;;;;;;;;5051501;28;20403;-52
2020/12/18 00:15:44;;;;;;;5.53;3.50;;;;;;;;;;5052576;28;20830;-52
2020/12/18 00:18:10;;;;;;;4.10;3.13;;;;;;;;;;5052016;28;20482;-51
2020/12/18 00:20:36;;;;;;;7.90;4.40;;;;;;;;;;5052028;28;20922;-50
2020/12/18 00:23:02;;;;;;;3.43;3.13;;;;;;;;;;5051844;28;20405;-52
2020/12/18 00:25:28;;;;;;;8.73;3.20;;;;;;;;;;5051999;28;20879;-52
2020/12/18 00:27:54;;;;;;;6.10;3.60;;;;;;;;;;5051886;28;20426;-52
2020/12/18 00:30:20;;;;;;;6.23;3.23;;;;;;;;;;5051531;28;20614;-50
2020/12/18 00:32:46;;;;;;;4.57;2.70;;;;;;;;;;5051610;28;20959;-50
2020/12/18 00:35:12;;;;;;;5.80;3.20;;;;;;;;;;5051814;28;20838;-50
2020/12/18 00:37:39;;;;;;;5.43;3.57;;;;;;;;;;5051601;28;20519;-50
2020/12/18 00:40:06;;;;;;;4.30;3.00;;;;;;;;;;5051876;28;20396;-52
2020/12/18 00:42:32;;;;;;;3.43;3.10;;;;;;;;;;5051487;28;20955;-50
2020/12/18 00:44:58;;;;;;;5.77;3.00;;;;;;;;;;5050630;28;20488;-50
2020/12/18 00:47:24;;;;;;;5.10;3.40;;;;;;;;;;5051855;28;20459;-50
2020/12/18 00:49:50;;;;;;;9.80;3.70;;;;;;;;;;5051540;28;20405;-51
2020/12/18 00:52:16;;;;;;;3.47;2.97;;;;;;;;;;5051384;28;20467;-50
2020/12/18 00:54:42;;;;;;;10.37;3.87;;;;;;;;;;5051606;28;20408;-51
2020/12/18 00:57:08;;;;;;;3.20;2.90;;;;;;;;;;5051440;28;20450;-51
2020/12/18 00:59:34;;;;;;;4.00;3.13;;;;;;;;;;5051080;28;20412;-55
2020/12/18 01:02:00;;;;;;;7.80;3.40;;;;;;;;;;5054673;28;20434;-52
2020/12/18 01:04:27;;;;;;;4.97;4.30;;;;;;;;;;5071361;28;20407;-50
2020/12/18 01:06:53;;;;;;;17.87;3.67;;;;;;;;;;5071196;28;20428;-50
2020/12/18 01:09:20;;;;;;;4.60;3.00;;;;;;;;;;5071305;28;20408;-50
2020/12/18 01:11:45;;;;;;;6.67;3.07;;;;;;;;;;5070884;28;20448;-50
2020/12/18 01:14:12;;;;;;;4.70;3.00;;;;;;;;;;5071107;28;20403;-50
2020/12/18 01:16:38;;;;;;;6.63;3.10;;;;;;;;;;5070965;28;20818;-50
2020/12/18 01:19:04;;;;;;;10.17;3.50;;;;;;;;;;5071056;28;20415;-49
2020/12/18 01:21:30;;;;;;;12.03;2.80;;;;;;;;;;5070713;28;20915;-52
2020/12/18 01:23:56;;;;;;;2.80;2.60;;;;;;;;;;5071055;28;20479;-51
2020/12/18 01:26:22;;;;;;;3.07;2.77;;;;;;;;;;5070931;28;20486;-50
2020/12/18 01:28:48;;;;;;;5.40;2.80;;;;;;;;;;5070846;28;20419;-50
2020/12/18 01:31:14;;;;;;;2.80;2.60;;;;;;;;;;5060758;28;20467;-50
2020/12/18 01:33:40;;;;;;;5.33;3.33;;;;;;;;;;5050665;28;20408;-50
2020/12/18 01:36:08;;;;;;;10.90;3.40;;;;;;;;;;5050801;28;20407;-50
2020/12/18 01:38:34;;;;;;;5.07;3.30;;;;;;;;;;5050675;28;20987;-50
2020/12/18 01:41:00;;;;;;;6.77;3.40;;;;;;;;;;5050744;28;20405;-50
2020/12/18 01:43:26;;;;;;;8.53;3.17;;;;;;;;;;5050455;28;20484;-50
2020/12/18 01:45:52;;;;;;;11.03;2.93;;;;;;;;;;5050723;28;20408;-50
2020/12/18 01:48:18;;;;;;;5.33;2.93;;;;;;;;;;5050473;28;20469;-50
2020/12/18 01:50:44;;;;;;;9.23;3.40;;;;;;;;;;5050515;28;20441;-50
2020/12/18 01:53:10;;;;;;;8.70;3.30;;;;;;;;;;5050467;28;20447;-50
2020/12/18 01:55:37;;;;;;;4.13;3.20;;;;;;;;;;5051350;28;20886;-50
2020/12/18 01:58:03;;;;;;;4.80;3.07;;;;;;;;;;5054540;28;20440;-51
2020/12/18 02:00:30;;;;;;;6.80;3.13;;;;;;;;;;5063658;28;20503;-52
2020/12/18 02:02:56;;;;;;;3.20;2.90;;;;;;;;;;5073919;28;21076;-50
2020/12/18 02:05:22;;;;;;;4.10;2.90;;;;;;;;;;5074214;28;20460;-50
2020/12/18 02:08:01;;;;;;;3.03;2.77;;;;;;;;;;5074434;28;20430;-50
2020/12/18 02:10:28;;;;;;;11.57;3.27;;;;;;;;;;5074356;28;20395;-51
2020/12/18 02:12:54;;;;;;;5.53;2.80;;;;;;;;;;5074363;28;20520;-51
2020/12/18 02:15:21;;;;;;;10.40;2.97;;;;;;;;;;5074373;28;20410;-50
2020/12/18 02:17:48;;;;;;;6.83;2.77;;;;;;;;;;5074342;28;20960;-52
2020/12/18 02:20:14;;;;;;;4.00;3.10;;;;;;;;;;5074346;28;20403;-50
2020/12/18 02:22:40;;;;;;;5.87;2.83;;;;;;;;;;5074153;28;20905;-50
2020/12/18 02:25:07;;;;;;;6.73;2.70;;;;;;;;;;5074122;28;20486;-50
2020/12/18 02:27:34;;;;;;;8.33;3.10;;;;;;;;;;5074212;28;20418;-50
2020/12/18 02:30:00;;;;;;;3.30;2.80;;;;;;;;;;5070848;28;20431;-50
2020/12/18 02:32:26;;;;;;;8.43;3.07;;;;;;;;;;5053865;28;20465;-51
2020/12/18 02:34:52;;;;;;;4.53;2.90;;;;;;;;;;5054189;28;20396;-51
2020/12/18 02:37:18;;;;;;;5.43;3.00;;;;;;;;;;5053879;28;20435;-50
2020/12/18 02:39:44;;;;;;;5.33;3.00;;;;;;;;;;5054026;28;20887;-50
2020/12/18 02:42:10;;;;;;;4.93;3.00;;;;;;;;;;5053768;28;20560;-50
2020/12/18 02:44:36;;;;;;;11.50;3.30;;;;;;;;;;5054096;28;20818;-50
2020/12/18 02:47:02;;;;;;;3.37;3.03;;;;;;;;;;5053967;28;20428;-51
2020/12/18 02:49:28;;;;;;;4.07;3.00;;;;;;;;;;5054143;28;20798;-53
2020/12/18 02:51:54;;;;;;;5.77;2.83;;;;;;;;;;5053710;28;20451;-53
2020/12/18 02:54:20;;;;;;;6.20;3.20;;;;;;;;;;5053845;28;20399;-52
2020/12/18 02:56:46;;;;;;;4.03;2.97;;;;;;;;;;5053572;28;20965;-51
2020/12/18 02:59:12;;;;;;;4.53;2.93;;;;;;;;;;5053793;28;20407;-50
2020/12/18 03:01:38;;;;;;;5.83;2.97;;;;;;;;;;5053436;28;20427;-50
2020/12/18 03:04:04;;;;;;;7.00;2.83;;;;;;;;;;5053650;28;20490;-50
2020/12/18 03:06:30;;;;;;;3.60;2.63;;;;;;;;;;5053446;28;20935;-50
2020/12/18 03:08:56;;;;;;;9.80;3.50;;;;;;;;;;5051089;28;20908;-50
2020/12/18 03:11:22;;;;;;;3.40;3.07;;;;;;;;;;5053180;28;20825;-50
2020/12/18 03:13:49;;;;;;;5.60;3.37;;;;;;;;;;5053369;28;20401;-50
2020/12/18 03:16:15;;;;;;;7.37;2.93;;;;;;;;;;5053388;28;20949;-52
2020/12/18 03:18:41;;;;;;;4.60;2.43;;;;;;;;;;5053169;28;21020;-50
2020/12/18 03:21:07;;;;;;;8.40;2.80;;;;;;;;;;5053286;28;20403;-51
2020/12/18 03:23:33;;;;;;;4.60;3.03;;;;;;;;;;5053006;28;20434;-50
2020/12/18 03:25:59;;;;;;;4.43;3.43;;;;;;;;;;5053186;28;20917;-51
2020/12/18 03:28:25;;;;;;;5.17;3.17;;;;;;;;;;5053109;28;20435;-51
2020/12/18 03:30:52;;;;;;;3.30;2.90;;;;;;;;;;5052446;28;20464;-51
2020/12/18 03:33:18;;;;;;;3.37;2.83;;;;;;;;;;5072189;28;20460;-52
2020/12/18 03:35:44;;;;;;;5.80;3.10;;;;;;;;;;5072908;28;20394;-51
2020/12/18 03:38:10;;;;;;;6.50;3.00;;;;;;;;;;5072902;28;20424;-50
2020/12/18 03:40:36;;;;;;;10.87;3.40;;;;;;;;;;5072756;28;20802;-50
2020/12/18 03:43:02;;;;;;;2.67;2.57;;;;;;;;;;5072724;28;20404;-50
2020/12/18 03:45:28;;;;;;;3.13;2.83;;;;;;;;;;5072723;28;20391;-50
2020/12/18 03:47:54;;;;;;;7.50;3.03;;;;;;;;;;5072720;28;20502;-51
2020/12/18 03:50:19;;;;;;;6.23;3.03;;;;;;;;;;5072513;28;20886;-51
2020/12/18 03:52:45;;;;;;;9.80;3.00;;;;;;;;;;5072436;28;20461;-50
2020/12/18 03:55:11;;;;;;;5.43;3.10;;;;;;;;;;5072685;28;20407;-50
2020/12/18 03:57:37;;;;;;;4.70;3.00;;;;;;;;;;5072353;28;20468;-50
2020/12/18 04:00:06;;;;;;;7.40;3.57;;;;;;;;;;5071299;28;20403;-50
2020/12/18 04:02:32;;;;;;;5.93;3.20;;;;;;;;;;5072170;28;20930;-50
2020/12/18 04:04:58;;;;;;;4.80;2.65;;;;;;;;;;5072370;28;20407;-50
2020/12/18 04:07:24;;;;;;;5.00;2.70;;;;;;;;;;5072261;28;20192;-50
2020/12/18 04:09:49;;;;;;;4.80;2.57;;;;;;;;;;5072335;28;20415;-50
2020/12/18 04:12:15;;;;;;;10.60;3.67;;;;;;;;;;5071907;28;21035;-52
2020/12/18 04:14:41;;;;;;;6.47;3.00;;;;;;;;;;5072169;28;20769;-51
2020/12/18 04:17:07;;;;;;;5.93;3.30;;;;;;;;;;5072096;28;20587;-50
2020/12/18 04:19:33;;;;;;;6.20;3.00;;;;;;;;;;5071911;28;20402;-50
2020/12/18 04:22:00;;;;;;;5.82;2.85;;;;;;;;;;5071913;28;20898;-50
2020/12/18 04:24:26;;;;;;;4.57;3.03;;;;;;;;;;5072024;28;20697;-49
2020/12/18 04:26:52;;;;;;;8.27;3.33;;;;;;;;;;5071994;28;20692;-50
2020/12/18 04:29:19;;;;;;;5.93;3.25;;;;;;;;;;5071914;28;20406;-50
2020/12/18 04:31:45;;;;;;;4.55;3.00;;;;;;;;;;5058893;28;20204;-51
2020/12/18 04:34:11;;;;;;;8.47;3.30;;;;;;;;;;5051831;28;20268;-50
2020/12/18 04:36:37;;;;;;;4.00;3.08;;;;;;;;;;5052091;28;20769;-50
2020/12/18 04:39:04;;;;;;;8.55;3.63;;;;;;;;;;5051876;28;20163;-50
2020/12/18 04:41:31;;;;;;;6.00;3.25;;;;;;;;;;5051616;28;20534;-50
2020/12/18 04:43:57;;;;;;;6.63;3.90;;;;;;;;;;5051745;28;20181;-50
2020/12/18 04:46:24;;;;;;;13.83;3.50;;;;;;;;;;5051750;28;20172;-50
2020/12/18 04:48:50;;;;;;;7.63;3.63;;;;;;;;;;5051545;28;20429;-49
2020/12/18 04:51:20;;;;;;;9.60;4.40;;;;;;;;;;5051559;28;20197;-50
2020/12/18 04:53:50;;;;;;;3.47;3.10;;;;;;;;;;5051853;28;20405;-50
2020/12/18 04:56:20;;;;;;;6.27;4.03;;;;;;;;;;5051869;28;20538;-50
2020/12/18 04:58:48;;;;;;;6.57;3.78;;;;;;;;;;5051746;28;20440;-51
2020/12/18 05:01:17;;;;;;;5.30;4.13;;;;;;;;;;5059592;28;20658;-50
2020/12/18 05:03:45;;;;;;;5.83;3.13;;;;;;;;;;5071067;28;20186;-49
2020/12/18 05:06:11;;;;;;;4.57;3.80;;;;;;;;;;5071189;28;20485;-49
2020/12/18 05:08:37;;;;;;;4.40;3.70;;;;;;;;;;5071169;28;20449;-49
2020/12/18 05:11:16;;;;;;;8.20;4.00;;;;;;;;;;5070872;28;20446;-49
2020/12/18 05:13:43;;;;;;;7.63;3.50;;;;;;;;;;5068187;28;20456;-50
2020/12/18 05:16:09;;;;;;;6.53;3.45;;;;;;;;;;5071039;28;20404;-50
2020/12/18 05:18:35;;;;;;;4.67;3.60;;;;;;;;;;5071040;28;20196;-50
2020/12/18 05:21:01;;;;;;;15.13;3.70;;;;;;;;;;5062227;28;20517;-52
2020/12/18 05:23:27;;;;;;;5.03;3.47;;;;;;;;;;5050798;28;20785;-49
2020/12/18 05:25:54;;;;;;;8.87;2.67;;;;;;;;;;5050965;28;20176;-49
2020/12/18 05:28:20;;;;;;;3.80;3.37;;;;;;;;;;5062622;28;20455;-52
2020/12/18 05:30:48;;;;;;;5.83;3.43;;;;;;;;;;5070129;28;20403;-50
2020/12/18 05:33:14;;;;;;;8.87;3.63;;;;;;;;;;5070631;28;20397;-52
2020/12/18 05:35:40;;;;;;;4.57;3.30;;;;;;;;;;5070874;28;20473;-52
2020/12/18 05:38:06;;;;;;;5.77;3.30;;;;;;;;;;5070600;28;20930;-52
2020/12/18 05:40:32;;;;;;;6.90;3.47;;;;;;;;;;5070732;28;20425;-55
2020/12/18 05:43:05;;;;;;;4.30;3.03;;;;;;;;;;5070497;28;20942;-50
2020/12/18 05:45:31;;;;;;;7.23;3.20;;;;;;;;;;5070804;28;20990;-49
2020/12/18 05:47:59;;;;;;;3.83;3.30;;;;;;;;;;5065030;28;20533;-50
2020/12/18 05:50:28;;;;;;;3.40;3.10;;;;;;;;;;5050584;28;20490;-51
2020/12/18 05:52:58;;;;;;;7.73;3.10;;;;;;;;;;5050269;28;20192;-53
2020/12/18 05:55:25;;;;;;;7.03;3.23;;;;;;;;;;5050784;28;20427;-52
2020/12/18 05:57:52;;;;;;;6.38;4.85;;;;;;;;;;5050387;28;20978;-49
2020/12/18 06:00:18;;;;;;;3.28;2.97;;;;;;;;;;5050498;28;20192;-49
2020/12/18 06:02:45;;;;;;;3.90;2.60;;;;;;;;;;5050484;28;20242;-51
2020/12/18 06:05:11;;;;;;;3.78;2.38;;;;;;;;;;5050746;28;20542;-50
2020/12/18 06:07:40;;;;;;;7.50;3.90;;;;;;;;;;5050508;28;20191;-51
2020/12/18 06:10:06;;;;;;;5.15;3.00;;;;;;;;;;5050630;28;20433;-49
2020/12/18 06:12:33;;;;;;;6.77;3.50;;;;;;;;;;5050101;28;20196;-49
2020/12/18 06:14:59;;;;;;;7.78;3.10;;;;;;;;;;5050052;28;20936;-52
2020/12/18 06:17:27;;;;;;;5.27;3.20;;;;;;;;;;5050388;28;20194;-49
2020/12/18 06:19:57;;;;;;;5.15;3.10;;;;;;;;;;5050280;28;20395;-49
2020/12/18 06:22:23;;;;;;;5.10;3.45;;;;;;;;;;5050284;28;20223;-49
2020/12/18 06:24:49;;;;;;;6.32;3.95;;;;;;;;;;5050447;28;20166;-51
2020/12/18 06:27:16;;;;;;;9.23;3.08;;;;;;;;;;5050321;28;20617;-49
2020/12/18 06:29:43;;;;;;;10.02;4.20;;;;;;;;;;5050525;28;20198;-49
2020/12/18 06:35:29;;;;;;;3.97;3.53;;;;;;;;;;5049861;28;20175;-49
2020/12/18 06:37:55;;;;;;;6.95;3.55;;;;;;;;;;5050324;28;20183;-49
2020/12/18 06:40:28;;;;;;;6.55;3.03;;;;;;;;;;5050358;28;20194;-49
2020/12/18 06:42:56;;;;;;;6.83;3.90;;;;;;;;;;5059135;28;20171;-49
2020/12/18 06:45:23;;;;;;;8.65;3.60;;;;;;;;;;5069691;28;20536;-50
2020/12/18 06:47:49;;;;;;;7.27;3.97;;;;;;;;;;5056353;28;20679;-49
2020/12/18 06:50:16;;;;;;;6.97;3.10;;;;;;;;;;5056396;28;20406;-49
2020/12/18 06:52:48;;;;;;;5.63;3.20;;;;;;;;;;5052967;28;20914;-51
2020/12/18 06:55:27;;;;;;;7.57;3.27;;;;;;;;;;5060956;28;20229;-52
2020/12/18 06:58:05;;;;;;;4.47;2.97;;;;;;;;;;5065403;28;20495;-50
2020/12/18 07:00:43;;;;;;;4.70;3.17;;;;;;;;;;5070908;28;20760;-50
2020/12/18 07:03:10;;;;;;;8.40;3.00;;;;;;;;;;5072729;28;20409;-50
2020/12/18 07:05:36;;;;;;;4.83;2.97;;;;;;;;;;5073636;28;20172;-49
2020/12/18 07:08:22;;;;;;;6.83;3.00;;;;;;;;;;5072585;28;20426;-50
2020/12/18 07:10:48;;;;;;;4.63;3.00;;;;;;;;;;5050766;28;20512;-50
2020/12/18 07:13:21;;;;;;;4.27;3.00;;;;;;;;;;5062813;28;20512;-52
2020/12/18 07:15:48;;;;;;;7.50;3.20;;;;;;;;;;5063385;28;20418;-51
2020/12/18 07:18:14;;;;;;;4.27;2.57;;;;;;;;;;5054434;28;20480;-51
2020/12/18 07:20:50;;;;;;;7.60;3.30;;;;;;;;;;5063802;28;20932;-50
2020/12/18 07:23:17;;;;;;;7.73;3.77;;;;;;;;;;5072981;28;20238;-49
2020/12/18 07:25:43;;;;;;;4.30;3.10;;;;;;;;;;5060305;28;20418;-51
2020/12/18 07:28:09;;;;;;;5.03;3.30;;;;;;;;;;5053057;28;20838;-49
2020/12/18 07:30:39;;;;;;;2.97;2.67;;;;;;;;;;5070812;28;20454;-50
2020/12/18 07:33:06;;;;;;;5.90;3.60;;;;;;;;;;5072812;28;20287;-49
2020/12/18 07:35:35;;;;;;;4.37;3.20;;;;;;;;;;5062035;28;20487;-51
2020/12/18 07:38:01;;;;;;;5.20;3.00;;;;;;;;;;5052861;28;20428;-49
2020/12/18 07:40:27;;;;;;;4.10;2.97;;;;;;;;;;5061496;28;20916;-49
2020/12/18 07:42:53;;;;;;;4.07;2.80;;;;;;;;;;5072646;28;20462;-50
2020/12/18 07:45:19;;;;;;;3.30;3.00;;;;;;;;;;5063754;28;20414;-50
2020/12/18 07:47:45;;;;;;;4.33;3.13;;;;;;;;;;5052924;28;20241;-47
2020/12/18 07:50:11;;;;;;;7.63;3.20;;;;;;;;;;5585210;23;20464;-50
2020/12/18 07:52:37;;;;;;;2.87;2.30;;;;;;;;;;5050143;28;20651;-50
2020/12/18 07:55:04;;;;;;;6.00;4.00;;;;;;;;;;5050952;28;20466;-51
2020/12/18 07:57:30;;;;;;;10.10;3.47;;;;;;;;;;5049826;28;20439;-51
2020/12/18 08:00:09;;;;;;;4.07;2.43;;;;;;;;;;5050182;28;20989;-52
2020/12/18 08:02:35;;;;;;;9.77;4.20;;;;;;;;;;5028951;28;20420;-51
2020/12/18 08:05:01;;;;;;;5.40;2.60;;;;;;;;;;5013120;28;20408;-51
2020/12/18 08:07:31;;;;;;;9.40;3.10;;;;;;;;;;5027647;28;20418;-51
2020/12/18 08:10:00;;;;;;;3.67;2.67;;;;;;;;;;5011511;28;20431;-51
2020/12/18 08:12:31;;;;;;;9.00;2.90;;;;;;;;;;5023119;28;20460;-51
2020/12/18 08:15:10;;;;;;;4.57;2.97;;;;;;;;;;5032145;28;20397;-51
2020/12/18 08:17:36;;;;;;;4.23;3.03;;;;;;;;;;5030482;28;20434;-50
2020/12/18 08:20:03;;;;;;;10.73;3.30;;;;;;;;;;5030388;28;20432;-51
2020/12/18 08:22:32;;;;;;;7.87;2.83;;;;;;;;;;5031501;28;20411;-50
2020/12/18 08:24:58;;;;;;;22.73;10.13;;;;;;;;;;5023015;28;20428;-51
2020/12/18 08:27:25;;;;;;;5.50;3.53;;;;;;;;;;5049743;22;20487;-56
2020/12/18 08:29:52;;;;;;;4.20;3.00;;;;;;;;;;5010643;28;20418;-56
2020/12/18 08:32:22;;;;;;;6.50;2.40;;;;;;;;;;5011780;28;20472;-56
2020/12/18 08:34:50;;;;;;;7.73;3.50;;;;;;;;;;5012216;28;20449;-57
2020/12/18 08:37:21;;;;;;;4.50;3.00;;;;;;;;;;5011829;28;20444;-56
2020/12/18 08:39:47;;;;;;;5.00;2.30;;;;;;;;;;5012014;28;20409;-56
2020/12/18 08:42:14;;;;;;;3.83;2.40;;;;;;;;;;5011894;28;20431;-57
2020/12/18 08:44:42;;;;;;;6.37;3.20;;;;;;;;;;5012030;28;20840;-57
2020/12/18 08:47:17;;;;;;;3.70;2.20;;;;;;;;;;5011767;28;20477;-56
2020/12/18 08:49:44;;;;;;;4.37;2.80;;;;;;;;;;5011584;28;20413;-56
2020/12/18 08:52:10;;;;;;;7.17;3.23;;;;;;;;;;5011678;28;20465;-57
2020/12/18 08:54:38;;;;;;;2.83;2.43;;;;;;;;;;5010534;28;20438;-55
2020/12/18 08:57:30;;;;;;;4.80;2.33;;;;;;;;;;5012135;28;20760;-57
2020/12/18 08:59:57;;;;;;;2.63;2.40;;;;;;;;;;5009345;28;20834;-56
2020/12/18 09:02:24;;;;;;;5.53;2.40;;;;;;;;;;5011749;28;20465;-54
2020/12/18 09:05:09;;;;;;;2.77;2.30;;;;;;;;;;5011033;28;20817;-57
2020/12/18 09:07:47;;;;;;;3.57;2.20;;;;;;;;;;5011428;28;20489;-55
2020/12/18 09:10:13;;;;;;;3.77;2.20;;;;;;;;;;5011476;28;20472;-55
2020/12/18 09:12:43;;;;;;;4.33;2.50;;;;;;;;;;5010749;28;20509;-58
2020/12/18 09:15:31;;;;;;;3.40;1.93;;;;;;;;;;5011830;28;20490;-54
2020/12/18 09:18:01;;;;;;;3.90;2.20;;;;;;;;;;5011539;28;20442;-57
2020/12/18 09:20:45;;;;;;;5.00;2.13;;;;;;;;;;5010640;28;20887;-53
2020/12/18 09:23:11;;;;;;;5.13;2.40;;;;;;;;;;5009082;28;20449;-57
2020/12/18 09:25:38;;;;;;;5.53;2.50;;;;;;;;;;5010974;28;20453;-56
2020/12/18 09:28:04;;;;;;;4.60;2.70;;;;;;;;;;5010718;28;20504;-56
2020/12/18 09:30:31;;;;;;;10.90;2.33;;;;;;;;;;5011241;28;20817;-57
2020/12/18 09:33:07;;;;;;;5.60;2.47;;;;;;;;;;5010964;28;20524;-54
2020/12/18 09:35:33;;;;;;;4.80;2.50;;;;;;;;;;5011130;28;20480;-54
2020/12/18 09:37:59;;;;;;;2.60;2.23;;;;;;;;;;5010442;28;20836;-54
2020/12/18 09:40:25;;;;;;;6.40;2.23;;;;;;;;;;5010912;28;20486;-54
2020/12/18 09:42:51;;;;;;;3.47;2.17;;;;;;;;;;5010668;28;20423;-54
2020/12/18 09:45:17;;;;;;;3.17;1.93;;;;;;;;;;5011150;28;20563;-54
2020/12/18 09:47:43;;;;;;;3.43;1.77;;;;;;;;;;5010771;28;20443;-54
2020/12/18 09:50:09;;;;;;;2.03;1.83;;;;;;;;;;5009845;28;20435;-55
2020/12/18 09:52:35;;;;;;;3.80;1.63;;;;;;;;;;5010563;28;20441;-55
2020/12/18 09:55:00;;;;;;;4.33;1.90;;;;;;;;;;5010595;28;20477;-54
2020/12/18 09:57:26;;;;;;;2.67;2.43;;;;;;;;;;5010860;28;20414;-55
2020/12/18 09:59:52;;;;;;;3.10;2.23;;;;;;;;;;5010634;28;20406;-54
2020/12/18 10:02:18;;;;;;;7.70;2.10;;;;;;;;;;5010679;28;20405;-54
2020/12/18 10:04:44;;;;;;;3.10;2.10;;;;;;;;;;5010799;28;20549;-55
2020/12/18 10:07:10;;;;;;;3.10;2.37;;;;;;;;;;5010677;28;20443;-55
2020/12/18 10:09:36;;;;;;;3.20;2.40;;;;;;;;;;5010541;28;20399;-55
2020/12/18 10:12:02;;;;;;;6.30;2.20;;;;;;;;;;5010465;28;20456;-54
2020/12/18 10:14:28;;;;;;;3.07;2.30;;;;;;;;;;5010513;28;20887;-55
2020/12/18 10:16:54;;;;;;;4.27;2.10;;;;;;;;;;5010899;28;20439;-55
2020/12/18 10:19:20;;;;;;;3.10;2.00;;;;;;;;;;5014486;28;20403;-55
2020/12/18 10:21:46;;;;;;;3.07;2.50;;;;;;;;;;5013909;28;20438;-54
2020/12/18 10:24:12;;;;;;;3.13;2.00;;;;;;;;;;5015639;28;20971;-54
2020/12/18 10:26:38;;;;;;;4.40;1.80;;;;;;;;;;5011708;28;20405;-54
2020/12/18 10:29:04;;;;;;;3.20;1.97;;;;;;;;;;5012916;28;20477;-55
2020/12/18 10:31:30;;;;;;;4.40;1.80;;;;;;;;;;5012621;28;20448;-54
2020/12/18 10:33:56;;;;;;;2.53;1.87;;;;;;;;;;5013568;28;20474;-54
2020/12/18 10:36:22;;;;;;;2.63;2.13;;;;;;;;;;5014050;28;20423;-55
2020/12/18 10:38:48;;;;;;;2.50;1.87;;;;;;;;;;5014260;28;20472;-55
2020/12/18 10:41:14;;;;;;;4.40;2.30;;;;;;;;;;5014137;28;20419;-54
2020/12/18 10:43:40;;;;;;;2.30;1.90;;;;;;;;;;5014050;28;20852;-54
2020/12/18 10:46:05;;;;;;;3.27;1.90;;;;;;;;;;5012066;28;20819;-55
2020/12/18 10:48:33;;;;;;;3.40;2.10;;;;;;;;;;5013150;28;20451;-55
2020/12/18 10:51:00;;;;;;;1.90;1.80;;;;;;;;;;5013984;28;20929;-55
2020/12/18 10:53:26;;;;;;;2.13;1.90;;;;;;;;;;5013830;28;20396;-55
2020/12/18 10:55:52;;;;;;;2.00;1.90;;;;;;;;;;5014110;28;20403;-54
2020/12/18 10:58:18;;;;;;;4.60;1.73;;;;;;;;;;5013739;28;20426;-55
2020/12/18 11:00:44;;;;;;;3.10;2.10;;;;;;;;;;5014047;28;21167;-56
2020/12/18 11:03:10;;;;;;;5.90;1.87;;;;;;;;;;5012471;28;20873;-55
2020/12/18 11:05:36;;;;;;;2.17;2.03;;;;;;;;;;5013610;28;20407;-56
2020/12/18 11:08:02;;;;;;;3.90;1.73;;;;;;;;;;5013981;28;20426;-55
2020/12/18 11:10:28;;;;;;;1.70;1.47;;;;;;;;;;5013473;28;20427;-55
2020/12/18 11:12:54;;;;;;;12.20;1.93;;;;;;;;;;5012928;28;20483;-56
2020/12/18 11:15:20;;;;;;;3.03;1.60;;;;;;;;;;5012766;28;20466;-55
2020/12/18 11:17:46;;;;;;;2.87;1.80;;;;;;;;;;5014011;28;20481;-55
2020/12/18 11:20:12;;;;;;;4.20;1.30;;;;;;;;;;5011779;28;20415;-54
2020/12/18 11:22:38;;;;;;;3.53;1.67;;;;;;;;;;5011830;28;20944;-54
2020/12/18 11:25:04;;;;;;;1.33;1.23;;;;;;;;;;5013082;28;20402;-53
2020/12/18 11:27:31;;;;;;;6.57;1.67;;;;;;;;;;5012713;28;20450;-53
2020/12/18 11:29:57;;;;;;;2.67;1.70;;;;;;;;;;5012478;28;20494;-54
2020/12/18 11:32:23;;;;;;;2.63;1.50;;;;;;;;;;5013276;28;20451;-54
2020/12/18 11:34:48;;;;;;;6.17;1.97;;;;;;;;;;5011676;28;20867;-54
2020/12/18 11:37:15;;;;;;;1.87;1.73;;;;;;;;;;5012721;28;20422;-55
2020/12/18 11:39:41;;;;;;;2.17;1.50;;;;;;;;;;5013001;28;20410;-54
2020/12/18 11:42:07;;;;;;;2.60;1.80;;;;;;;;;;5013881;28;20466;-54
2020/12/18 11:44:33;;;;;;;1.40;1.30;;;;;;;;;;5022274;28;20616;-54
2020/12/18 11:46:59;;;;;;;4.10;1.97;;;;;;;;;;5026848;28;20953;-55
2020/12/18 11:49:25;;;;;;;2.80;1.60;;;;;;;;;;5032597;28;20446;-55
2020/12/18 11:51:51;;;;;;;5.27;2.03;;;;;;;;;;5024308;28;20449;-55
2020/12/18 11:54:17;;;;;;;4.70;1.77;;;;;;;;;;5018044;28;20829;-55
2020/12/18 11:56:47;;;;;;;3.63;1.77;;;;;;;;;;5012078;28;20447;-54
2020/12/18 11:59:13;;;;;;;3.17;1.73;;;;;;;;;;5005356;28;20415;-55
2020/12/18 12:01:39;;;;;;;2.13;1.50;;;;;;;;;;5012499;28;20473;-55
2020/12/18 12:04:05;;;;;;;1.60;1.50;;;;;;;;;;5012669;28;20419;-55
2020/12/18 12:06:31;;;;;;;1.83;1.73;;;;;;;;;;5017819;28;20501;-55
2020/12/18 12:09:03;;;;;;;1.83;1.47;;;;;;;;;;5023830;28;20534;-54
2020/12/18 12:11:35;;;;;;;1.80;1.70;;;;;;;;;;5012404;28;20494;-54
2020/12/18 12:14:01;;;;;;;2.50;1.80;;;;;;;;;;5009301;28;20845;-54
2020/12/18 12:16:31;;;;;;;2.87;1.73;;;;;;;;;;4993022;28;20487;-54
2020/12/18 12:18:57;;;;;;;4.43;1.80;;;;;;;;;;4997289;28;20431;-54
2020/12/18 12:21:23;;;;;;;2.40;1.80;;;;;;;;;;5014664;28;20391;-54
2020/12/18 12:23:49;;;;;;;1.63;1.50;;;;;;;;;;5022229;28;20390;-54
2020/12/18 12:26:15;;;;;;;3.33;1.93;;;;;;;;;;5022458;28;20432;-54
2020/12/18 12:28:41;;;;;;;2.77;1.93;;;;;;;;;;5025262;28;20430;-53
2020/12/18 12:31:07;;;;;;;3.83;1.50;;;;;;;;;;5011154;28;20420;-53
2020/12/18 12:33:33;;;;;;;1.70;1.60;;;;;;;;;;5010084;28;20865;-54
2020/12/18 12:35:59;;;;;;;1.87;1.67;;;;;;;;;;5011509;28;20411;-55
2020/12/18 12:38:25;;;;;;;4.50;1.63;;;;;;;;;;5012743;28;20925;-53
2020/12/18 12:40:52;;;;;;;3.33;1.73;;;;;;;;;;5023866;28;20392;-54
2020/12/18 12:43:18;;;;;;;6.87;2.40;;;;;;;;;;5031265;28;20388;-53
2020/12/18 12:45:44;;;;;;;6.00;1.60;;;;;;;;;;5012310;28;20415;-54
2020/12/18 12:48:10;;;;;;;4.33;2.03;;;;;;;;;;5011932;28;20424;-53
2020/12/18 12:50:36;;;;;;;2.30;1.70;;;;;;;;;;5011628;28;20456;-53
2020/12/18 12:53:02;;;;;;;5.17;2.07;;;;;;;;;;5011880;28;21049;-53
2020/12/18 12:55:28;;;;;;;8.40;2.93;;;;;;;;;;5027295;28;20381;-53
2020/12/18 12:57:54;;;;;;;2.63;1.70;;;;;;;;;;5021573;28;20470;-53
2020/12/18 13:00:20;;;;;;;2.47;1.80;;;;;;;;;;5010631;28;20473;-53
2020/12/18 13:02:46;;;;;;;2.70;1.63;;;;;;;;;;5010769;28;20427;-53
2020/12/18 13:05:13;;;;;;;5.83;1.70;;;;;;;;;;5009997;28;20429;-53
2020/12/18 13:07:39;;;;;;;4.03;1.93;;;;;;;;;;5011975;28;20443;-52
2020/12/18 13:10:05;;;;;;;1.60;1.50;;;;;;;;;;5010751;28;20423;-52
2020/12/18 13:12:31;;;;;;;2.00;1.90;;;;;;;;;;5011229;28;20444;-53
2020/12/18 13:14:57;;;;;;;3.57;2.07;;;;;;;;;;5009970;28;20446;-53
2020/12/18 13:17:23;;;;;;;3.50;1.87;;;;;;;;;;5010754;28;20470;-53
2020/12/18 13:19:49;;;;;;;4.40;3.10;;;;;;;;;;5011011;28;20415;-53
2020/12/18 13:22:15;;;;;;;2.17;1.97;;;;;;;;;;5011398;28;20415;-53
2020/12/18 13:24:41;;;;;;;2.50;1.83;;;;;;;;;;5010720;28;20419;-53
2020/12/18 13:27:07;;;;;;;2.57;2.37;;;;;;;;;;5011171;28;20455;-53
2020/12/18 13:29:33;;;;;;;3.33;2.50;;;;;;;;;;5003419;28;20423;-53
2020/12/18 13:31:59;;;;;;;2.40;1.40;;;;;;;;;;4991569;28;20954;-54
2020/12/18 13:34:25;;;;;;;1.93;1.60;;;;;;;;;;4998027;28;20518;-53
2020/12/18 13:36:51;;;;;;;4.30;1.60;;;;;;;;;;5008811;28;20798;-53
2020/12/18 13:39:17;;;;;;;2.17;1.40;;;;;;;;;;5010229;28;20390;-54
2020/12/18 13:41:43;;;;;;;1.40;1.30;;;;;;;;;;5009296;28;20439;-54
2020/12/18 13:44:09;;;;;;;3.73;1.43;;;;;;;;;;4991439;28;20404;-53
2020/12/18 13:46:35;;;;;;;3.43;1.47;;;;;;;;;;4991453;28;20407;-53
2020/12/18 13:49:02;;;;;;;3.03;1.83;;;;;;;;;;5010793;28;20930;-53
2020/12/18 13:51:28;;;;;;;3.73;2.03;;;;;;;;;;5010288;28;20451;-54
2020/12/18 13:53:54;;;;;;;2.20;1.30;;;;;;;;;;4991540;28;20478;-54
2020/12/18 13:56:20;;;;;;;2.13;2.00;;;;;;;;;;4991350;28;20400;-54
2020/12/18 13:58:46;;;;;;;2.10;1.60;;;;;;;;;;5007985;28;20450;-53
2020/12/18 14:01:12;;;;;;;5.70;1.80;;;;;;;;;;5009757;28;20427;-53
2020/12/18 14:03:37;;;;;;;2.67;1.90;;;;;;;;;;4994063;28;20466;-53
2020/12/18 14:06:03;;;;;;;2.83;2.50;;;;;;;;;;5010162;28;20431;-53
2020/12/18 14:08:29;;;;;;;3.23;2.10;;;;;;;;;;5010539;28;20442;-53
2020/12/18 14:10:55;;;;;;;7.70;4.27;;;;;;;;;;5010571;28;20815;-53
2020/12/18 14:13:21;;;;;;;3.10;1.90;;;;;;;;;;5009930;28;20466;-53
2020/12/18 14:15:47;;;;;;;5.87;2.37;;;;;;;;;;5009802;28;20419;-53
2020/12/18 14:18:13;;;;;;;3.87;2.07;;;;;;;;;;5009804;28;20439;-53
2020/12/18 14:20:39;;;;;;;2.07;1.50;;;;;;;;;;5009777;28;20911;-53
2020/12/18 14:23:06;;;;;;;3.67;1.87;;;;;;;;;;5009967;28;20422;-53
2020/12/18 14:25:32;;;;;;;4.00;2.10;;;;;;;;;;5010759;28;20430;-53
2020/12/18 14:27:58;;;;;;;3.43;1.97;;;;;;;;;;5015738;23;20491;-52
2020/12/18 14:30:24;;;;;;;1.93;1.70;;;;;;;;;;5004765;28;20782;-50
2020/12/18 14:32:50;;;;;;;3.70;1.70;;;;;;;;;;5008468;28;20454;-50
2020/12/18 14:35:16;;;;;;;2.50;1.77;;;;;;;;;;5010635;28;20785;-50
2020/12/18 14:37:42;;;;;;;1.80;1.70;;;;;;;;;;5010194;28;20422;-50
2020/12/18 14:40:08;;;;;;;2.30;1.63;;;;;;;;;;5010288;28;20991;-50
2020/12/18 14:42:33;;;;;;;2.23;1.67;;;;;;;;;;5010491;28;20421;-50
2020/12/18 14:44:59;;;;;;;3.43;1.67;;;;;;;;;;5010594;28;21047;-50